Adolphus, Kentucky
Current Conditions -  °F | °C
As of 3:53 AM on Thursday 23 Oct 2014 (Local Time) from KBWG Reporting Station
Haze Haze  
Wind Chill:   Ceiling: Unl
Heat Index:   Visibility: 1mi
Dew Point:   Wind: 0mph
Humidity: 93%   Direction: NA
Pressure: 30.24"   Gusts: NA
Location:  36.65°N, 86.26°W
Report Text: KBWG 230853Z AUTO 00000KT 1SM BR CLR 03/02 A3024 RMK AO2 SLP239 T00330022 53001
Loading
Personal Weather Stations






























Interactive Weather Map New forecast layout! Learn more

10-Day Weather Forecast

Advertisements
Track Severe Weather on mobile